Main page
METAR-TAF:

METAR-TAF

Airports :

Dundee Airport

Dundee, Scotland

latitude: 56-27N, longitude: 003-01W, elevation: 4 m

Current weather observation

The report was made 7 hours and 41 minutes ago, at 14:50 UTC
Wind 7 kt from the Northeast, varying between North and East
Temperature 6°C
Humidity 42%
Pressure 1020 hPa
Visibility: 4000 m
Few clouds at a height of 2000 ft
light snow showers

METAR: EGPN 111450Z 04007KT 350V080 9999 4000SW -SHSN FEW020 06/M06 Q1020

Time: 23:31 (22:31 UTC)

Forecast

The report was made 8 hours and 29 minutes ago, at 14:02 UTC
Forecast valid from 11 at 15 UTC to 11 at 17 UTC
Wind 4 kt from the West
Visibility 10 km or more
Few clouds at a height of 2500 ft
Temporary
from 11 at 15 UTC to 11 at 17 UTC
Visibility: 2500 m
Broken clouds at a height of 1200 ft, Cumulonimbus.
snow showers, rain

TAF: EGPN 111402Z 1115/1117 28004KT 9999 FEW025 TEMPO 1115/1117 2500 SHSNRA BKN012CB

Weather observations and forecasts of more than 4000 airports (METAR and TAF reports).

The available stations are represented by yellow and red dots on the map.

Hover mouse over dot to see the name of the station.

Then click to see weather observations and forecasts.

To change the map : click on the green buttons with a black cross to zoom in, on the green button with a dash to zoom out, or on the green arrows for adjacent maps.


METAR-TAF: